Time;durP1;ratioP1;P1;durP2;ratioP2;P2;SDS_P1;SDS_P2;PMS_P1;PMS_P2;Temp;Humidity;BMP_temperature;BMP_pressure;BME280_temperature;BME280_humidity;BME280_pressure;Samples;Min_cycle;Max_cycle;Signal;HPM_P1;HPM_P2
2023/10/21 00:01:06;;;;;;;;;;;;;;;11.79;100.00;97611.22;4874661;29;19962;-66
2023/10/21 00:04:09;;;;;;;;;;;;;;;11.81;100.00;97610.09;4875868;29;20291;-67
2023/10/21 00:07:12;;;;;;;;;;;;;;;11.85;100.00;97600.97;4876047;29;19923;-67
2023/10/21 00:10:16;;;;;;;;;;;;;;;11.82;100.00;97598.63;4876998;29;19951;-66
2023/10/21 00:13:19;;;;;;;;;;;;;;;11.83;100.00;97600.25;4877815;29;20302;-67
2023/10/21 00:16:22;;;;;;;;;;;;;;;11.83;100.00;97597.66;4873548;29;20399;-67
2023/10/21 00:19:26;;;;;;;;;;;;;;;11.86;100.00;97601.78;4874416;29;19976;-67
2023/10/21 00:22:29;;;;;;;;;;;;;;;11.67;100.00;97602.03;4875138;29;20378;-66
2023/10/21 00:25:32;;;;;;;;;;;;;;;11.70;100.00;97596.47;4875990;29;19922;-67
2023/10/21 00:28:35;;;;;;;;;;;;;;;11.70;100.00;97599.91;4864920;29;19926;-67
2023/10/21 00:31:38;;;;;;;;;;;;;;;11.59;100.00;97603.63;4877683;29;19939;-67
2023/10/21 00:34:40;;;;;;;;;;;;;;;11.60;100.00;97602.66;4873710;29;20076;-66
2023/10/21 00:37:43;;;;;;;;;;;;;;;11.63;100.00;97588.44;4865262;29;19926;-66
2023/10/21 00:40:50;;;;;;;;;;;;;;;11.71;100.00;97598.09;4877956;29;19923;-66
2023/10/21 00:43:54;;;;;;;;;;;;;;;11.73;100.00;97598.78;4879463;29;19962;-66
2023/10/21 00:47:00;;;;;;;;;;;;;;;11.59;100.00;97595.78;4880368;29;19987;-66
2023/10/21 00:50:04;;;;;;;;;;;;;;;11.60;100.00;97594.81;4869671;29;20031;-66
2023/10/21 00:53:07;;;;;;;;;;;;;;;11.51;100.00;97605.41;4869708;29;19939;-67
2023/10/21 00:56:10;;;;;;;;;;;;;;;11.52;100.00;97604.41;4880803;29;19964;-66
2023/10/21 00:59:13;;;;;;;;;;;;;;;11.71;100.00;97596.34;4881392;29;20284;-66
2023/10/21 01:02:16;;;;;;;;;;;;;;;11.72;100.00;97607.63;4881313;29;19971;-66
2023/10/21 01:05:20;;;;;;;;;;;;;;;11.70;100.00;97607.75;4881096;29;19922;-66
2023/10/21 01:08:23;;;;;;;;;;;;;;;11.71;100.00;97606.81;4880435;29;19928;-66
2023/10/21 01:11:27;;;;;;;;;;;;;;;11.83;100.00;97608.13;4881101;29;19974;-66
2023/10/21 01:14:29;;;;;;;;;;;;;;;11.94;100.00;97611.47;4881151;29;19971;-66
2023/10/21 01:17:33;;;;;;;;;;;;;;;12.01;100.00;97607.22;4881089;29;20300;-66
2023/10/21 01:20:41;;;;;;;;;;;;;;;11.92;100.00;97610.81;4880883;29;19968;-66
2023/10/21 01:23:44;;;;;;;;;;;;;;;12.08;100.00;97602.97;4880334;29;19973;-66
2023/10/21 01:26:46;;;;;;;;;;;;;;;12.05;100.00;97611.16;4868380;29;19922;-66
2023/10/21 01:29:49;;;;;;;;;;;;;;;12.07;100.00;97607.41;4879266;29;20439;-66
2023/10/21 01:32:53;;;;;;;;;;;;;;;12.12;100.00;97611.34;4880631;29;20011;-66
2023/10/21 01:35:55;;;;;;;;;;;;;;;12.13;100.00;97603.34;4868635;29;19942;-66
2023/10/21 01:38:59;;;;;;;;;;;;;;;12.16;100.00;97608.25;4880514;29;20013;-66
2023/10/21 01:42:02;;;;;;;;;;;;;;;12.19;100.00;97612.31;4869140;29;19921;-66
2023/10/21 01:45:06;;;;;;;;;;;;;;;12.21;100.00;97623.47;4880165;29;19922;-66
2023/10/21 01:48:09;;;;;;;;;;;;;;;12.24;100.00;97628.38;4880227;29;19968;-66
2023/10/21 01:51:13;;;;;;;;;;;;;;;12.26;100.00;97626.44;4880339;29;19980;-66
2023/10/21 01:54:17;;;;;;;;;;;;;;;12.36;100.00;97628.91;4880474;29;19941;-66
2023/10/21 01:57:20;;;;;;;;;;;;;;;12.40;100.00;97635.44;4868765;29;19971;-66
2023/10/21 02:00:23;;;;;;;;;;;;;;;12.39;100.00;97633.81;4868066;29;19980;-66
2023/10/21 02:03:26;;;;;;;;;;;;;;;12.44;100.00;97642.81;4880498;29;20315;-66
2023/10/21 02:06:29;;;;;;;;;;;;;;;12.43;100.00;97641.19;4868778;29;19922;-66
2023/10/21 02:09:33;;;;;;;;;;;;;;;12.43;100.00;97640.38;4879993;29;19927;-66
2023/10/21 02:12:36;;;;;;;;;;;;;;;12.32;100.00;97647.56;4868624;29;20056;-66
2023/10/21 02:15:41;;;;;;;;;;;;;;;12.43;100.00;97656.91;4879816;29;19980;-66
2023/10/21 02:18:44;;;;;;;;;;;;;;;12.48;100.00;97653.81;4880064;29;19923;-66
2023/10/21 02:21:47;;;;;;;;;;;;;;;12.42;100.00;97664.94;4879966;29;19971;-66
2023/10/21 02:24:51;;;;;;;;;;;;;;;12.42;100.00;97664.94;4879915;29;19972;-66
2023/10/21 02:27:54;;;;;;;;;;;;;;;12.42;100.00;97678.03;4879506;29;19926;-66
2023/10/21 02:30:57;;;;;;;;;;;;;;;12.43;100.00;97679.69;4879809;29;19927;-66
2023/10/21 02:34:00;;;;;;;;;;;;;;;12.33;100.00;97696.34;4879615;29;19966;-66
2023/10/21 02:37:02;;;;;;;;;;;;;;;12.40;100.00;97704.38;4867921;29;19922;-66
2023/10/21 02:40:06;;;;;;;;;;;;;;;12.48;100.00;97698.38;4868203;29;20320;-66
2023/10/21 02:43:09;;;;;;;;;;;;;;;12.54;100.00;97713.44;4879074;29;19922;-66
2023/10/21 02:46:13;;;;;;;;;;;;;;;12.50;100.00;97714.72;4878868;29;19922;-66
2023/10/21 02:49:16;;;;;;;;;;;;;;;12.59;100.00;97719.00;4878927;29;19927;-66
2023/10/21 02:52:19;;;;;;;;;;;;;;;12.67;100.00;97732.13;4879012;29;19930;-66
2023/10/21 02:55:22;;;;;;;;;;;;;;;12.72;100.00;97734.25;4879184;29;19987;-66
2023/10/21 02:58:25;;;;;;;;;;;;;;;12.74;100.00;97743.63;4878369;29;20353;-66
2023/10/21 03:01:28;;;;;;;;;;;;;;;12.69;100.00;97755.56;4879090;29;20050;-66
2023/10/21 03:04:32;;;;;;;;;;;;;;;12.72;100.00;97761.28;4878966;29;20447;-66
2023/10/21 03:07:35;;;;;;;;;;;;;;;12.77;100.00;97764.28;4879281;29;20328;-66
2023/10/21 03:10:38;;;;;;;;;;;;;;;12.83;100.00;97788.19;4878490;29;20384;-66
2023/10/21 03:13:41;;;;;;;;;;;;;;;13.09;100.00;97788.09;4878915;29;19990;-66
2023/10/21 03:16:44;;;;;;;;;;;;;;;13.41;100.00;97813.53;4842243;29;19973;-66
2023/10/21 03:19:47;;;;;;;;;;;;;;;13.45;100.00;97841.09;4830539;29;19923;-66
2023/10/21 03:22:50;;;;;;;;;;;;;;;13.36;100.00;97873.56;4842023;29;20012;-66
2023/10/21 03:25:57;;;;;;;;;;;;;;;13.32;100.00;97870.44;4842000;29;20042;-66
2023/10/21 03:29:00;;;;;;;;;;;;;;;13.35;100.00;97882.44;4841685;29;19974;-66
2023/10/21 03:32:04;;;;;;;;;;;;;;;13.23;100.00;97887.94;4841921;29;19942;-66
2023/10/21 03:35:07;;;;;;;;;;;;;;;13.30;100.00;97911.75;4843648;29;19923;-66
2023/10/21 03:38:10;;;;;;;;;;;;;;;13.28;100.00;97928.69;4874766;29;19938;-66
2023/10/21 03:41:15;;;;;;;;;;;;;;;13.25;100.00;97943.75;4878639;29;19971;-66
2023/10/21 03:44:18;;;;;;;;;;;;;;;13.31;100.00;97965.91;4867175;29;19923;-66
2023/10/21 03:47:21;;;;;;;;;;;;;;;13.26;100.00;97987.38;4867136;29;19938;-66
2023/10/21 03:50:25;;;;;;;;;;;;;;;13.33;100.00;97987.56;4878605;29;19927;-66
2023/10/21 03:53:29;;;;;;;;;;;;;;;13.28;100.00;98002.16;4878845;29;19963;-66
2023/10/21 03:56:32;;;;;;;;;;;;;;;13.28;100.00;98012.66;4878634;29;19939;-66
2023/10/21 03:59:34;;;;;;;;;;;;;;;13.29;100.00;98028.22;4879144;29;19972;-66
2023/10/21 04:02:37;;;;;;;;;;;;;;;13.28;100.00;98034.47;4878726;29;19923;-66
2023/10/21 04:05:42;;;;;;;;;;;;;;;13.28;100.00;98039.72;4878508;29;19938;-66
2023/10/21 04:08:44;;;;;;;;;;;;;;;13.25;100.00;98056.59;4878674;29;20319;-66
2023/10/21 04:11:48;;;;;;;;;;;;;;;13.29;100.00;98066.78;4882192;29;19923;-66
2023/10/21 04:14:51;;;;;;;;;;;;;;;13.27;100.00;98080.03;4882201;29;20021;-66
2023/10/21 04:17:54;;;;;;;;;;;;;;;13.31;100.00;98080.56;4863585;29;19964;-66
2023/10/21 04:20:57;;;;;;;;;;;;;;;13.35;100.00;98092.38;4873627;29;20291;-66
2023/10/21 04:24:00;;;;;;;;;;;;;;;13.41;100.00;98102.25;4882000;29;20291;-66
2023/10/21 04:27:05;;;;;;;;;;;;;;;13.51;100.00;98118.72;4881095;29;20002;-66
2023/10/21 04:30:08;;;;;;;;;;;;;;;13.39;100.00;98117.34;4864856;29;20018;-66
2023/10/21 04:33:12;;;;;;;;;;;;;;;13.40;100.00;98125.06;4863306;29;19973;-66
2023/10/21 04:36:18;;;;;;;;;;;;;;;13.29;100.00;98135.00;4862981;29;19923;-66
2023/10/21 04:39:21;;;;;;;;;;;;;;;13.38;100.00;98139.31;4862961;29;19927;-66
2023/10/21 04:42:25;;;;;;;;;;;;;;;13.39;100.00;98146.22;4862889;29;19923;-66
2023/10/21 04:45:30;;;;;;;;;;;;;;;13.34;100.00;98145.88;4862876;29;20296;-66
2023/10/21 04:48:33;;;;;;;;;;;;;;;13.32;100.00;98163.56;4862598;29;20027;-66
2023/10/21 04:51:36;;;;;;;;;;;;;;;13.28;100.00;98167.50;4862625;29;20036;-66
2023/10/21 04:54:39;;;;;;;;;;;;;;;13.31;100.00;98169.81;4862722;29;20053;-66
2023/10/21 04:57:42;;;;;;;;;;;;;;;13.24;100.00;98174.78;4862759;29;20436;-66
2023/10/21 05:00:45;;;;;;;;;;;;;;;13.19;100.00;98177.88;4862478;29;19993;-66
2023/10/21 05:03:49;;;;;;;;;;;;;;;13.13;100.00;98183.75;4862963;29;19971;-66
2023/10/21 05:06:53;;;;;;;;;;;;;;;12.98;100.00;98190.50;4862095;29;20039;-66
2023/10/21 05:09:56;;;;;;;;;;;;;;;13.00;100.00;98193.81;4862222;29;19927;-66
2023/10/21 05:12:59;;;;;;;;;;;;;;;13.08;100.00;98206.16;4862526;29;19922;-66
2023/10/21 05:16:03;;;;;;;;;;;;;;;13.01;100.00;98205.94;4862779;29;19972;-66
2023/10/21 05:19:06;;;;;;;;;;;;;;;13.10;100.00;98215.53;4862879;29;19922;-66
2023/10/21 05:22:09;;;;;;;;;;;;;;;13.05;100.00;98215.19;4861224;29;19938;-66
2023/10/21 05:25:12;;;;;;;;;;;;;;;13.06;100.00;98214.19;4862117;29;19923;-66
2023/10/21 05:28:15;;;;;;;;;;;;;;;12.95;100.00;98219.66;4861599;29;19974;-66
2023/10/21 05:31:18;;;;;;;;;;;;;;;12.80;100.00;98232.50;4862303;29;19927;-66
2023/10/21 05:34:21;;;;;;;;;;;;;;;12.84;100.00;98236.47;4862110;29;19923;-65
2023/10/21 05:37:24;;;;;;;;;;;;;;;12.93;100.00;98255.75;4861271;29;19923;-65
2023/10/21 05:40:27;;;;;;;;;;;;;;;12.97;100.00;98262.31;4862452;29;19927;-68
2023/10/21 05:43:30;;;;;;;;;;;;;;;13.01;100.00;98274.97;4862109;29;20440;-66
2023/10/21 05:46:33;;;;;;;;;;;;;;;13.03;100.00;98277.47;4862157;29;19923;-68
2023/10/21 05:49:36;;;;;;;;;;;;;;;12.76;100.00;98288.84;4861937;29;20406;-66
2023/10/21 05:52:39;;;;;;;;;;;;;;;12.72;100.00;98296.19;4861997;29;19974;-66
2023/10/21 05:55:43;;;;;;;;;;;;;;;12.91;100.00;98300.47;4862009;29;19964;-66
2023/10/21 05:58:46;;;;;;;;;;;;;;;12.92;100.00;98306.53;4861691;29;20300;-66
2023/10/21 06:01:49;;;;;;;;;;;;;;;12.87;100.00;98308.78;4860430;29;19988;-67
2023/10/21 06:04:53;;;;;;;;;;;;;;;12.93;100.00;98318.69;4860739;29;19939;-67
2023/10/21 06:07:56;;;;;;;;;;;;;;;12.99;100.00;98333.84;4860332;29;20395;-66
2023/10/21 06:10:59;;;;;;;;;;;;;;;12.82;100.00;98343.31;4860256;29;19923;-66
2023/10/21 06:14:02;;;;;;;;;;;;;;;12.88;100.00;98352.41;4860199;29;19992;-66
2023/10/21 06:17:05;;;;;;;;;;;;;;;12.67;100.00;98360.53;4860409;29;19923;-68
2023/10/21 06:20:08;;;;;;;;;;;;;;;12.66;100.00;98364.94;4858821;29;19972;-66
2023/10/21 06:23:12;;;;;;;;;;;;;;;12.77;100.00;98367.38;4860178;29;20240;-67
2023/10/21 06:26:15;;;;;;;;;;;;;;;12.84;100.00;98369.41;4859074;29;20320;-66
2023/10/21 06:29:18;;;;;;;;;;;;;;;13.08;100.00;98390.66;4870913;29;19967;-66
2023/10/21 06:32:21;;;;;;;;;;;;;;;13.15;100.00;98388.28;4878837;29;19923;-66
2023/10/21 06:35:24;;;;;;;;;;;;;;;13.24;100.00;98396.09;4878333;29;20390;-66
2023/10/21 06:38:27;;;;;;;;;;;;;;;13.02;100.00;98402.56;4878671;29;19968;-66
2023/10/21 06:41:30;;;;;;;;;;;;;;;13.05;100.00;98406.69;4878705;29;19926;-66
2023/10/21 06:44:36;;;;;;;;;;;;;;;13.08;100.00;98422.16;4878422;29;19922;-70
2023/10/21 06:47:39;;;;;;;;;;;;;;;13.28;100.00;98417.63;4878010;29;20383;-71
2023/10/21 06:50:42;;;;;;;;;;;;;;;13.32;100.00;98428.66;4878790;29;20395;-70
2023/10/21 06:53:45;;;;;;;;;;;;;;;13.32;100.00;98437.34;4878562;29;19938;-67
2023/10/21 06:56:48;;;;;;;;;;;;;;;13.35;100.00;98444.91;4878230;29;20367;-66
2023/10/21 06:59:52;;;;;;;;;;;;;;;13.35;100.00;98458.03;4878296;29;19923;-67
2023/10/21 07:02:55;;;;;;;;;;;;;;;13.38;100.00;98455.13;4878452;29;19927;-66
2023/10/21 07:05:58;;;;;;;;;;;;;;;13.37;100.00;98474.50;4877926;29;19980;-66
2023/10/21 07:09:01;;;;;;;;;;;;;;;13.33;98.54;98467.03;4876301;29;19927;-66
2023/10/21 07:12:05;;;;;;;;;;;;;;;13.30;97.27;98493.56;4878071;29;19926;-67
2023/10/21 07:15:09;;;;;;;;;;;;;;;13.34;97.51;98497.59;4877850;29;20291;-66
2023/10/21 07:18:14;;;;;;;;;;;;;;;13.29;96.19;98497.19;4878309;29;19923;-66
2023/10/21 07:21:17;;;;;;;;;;;;;;;13.29;96.91;98512.94;4859161;29;19950;-66
2023/10/21 07:24:20;;;;;;;;;;;;;;;13.24;96.81;98524.69;4859201;29;19980;-66
2023/10/21 07:27:24;;;;;;;;;;;;;;;13.50;94.13;98518.75;4866116;29;19931;-66
2023/10/21 07:30:27;;;;;;;;;;;;;;;13.42;94.54;98521.28;4858592;29;19935;-66
2023/10/21 07:33:31;;;;;;;;;;;;;;;13.38;93.03;98522.56;4853888;29;20002;-66
2023/10/21 07:36:34;;;;;;;;;;;;;;;13.47;93.83;98527.75;4854193;29;19923;-65
2023/10/21 07:39:38;;;;;;;;;;;;;;;13.42;95.89;98534.41;4854988;29;19964;-66
2023/10/21 07:42:43;;;;;;;;;;;;;;;13.41;93.01;98548.50;4858556;29;19923;-66
2023/10/21 07:45:46;;;;;;;;;;;;;;;13.41;91.33;98548.50;4858046;29;19962;-66
2023/10/21 07:48:50;;;;;;;;;;;;;;;13.42;91.32;98561.47;4858531;29;19976;-66
2023/10/21 07:51:53;;;;;;;;;;;;;;;13.34;89.32;98560.56;4860918;29;19958;-66
2023/10/21 07:54:57;;;;;;;;;;;;;;;13.42;88.86;98560.66;4861934;29;19963;-66
2023/10/21 07:58:00;;;;;;;;;;;;;;;13.40;88.95;98563.44;4862962;29;19972;-67
2023/10/21 08:01:03;;;;;;;;;;;;;;;13.46;85.80;98576.00;4862855;29;19923;-67
2023/10/21 08:04:06;;;;;;;;;;;;;;;13.48;84.95;98581.06;4862620;29;19942;-67
2023/10/21 08:07:10;;;;;;;;;;;;;;;13.45;84.65;98603.19;4862830;29;20015;-67
2023/10/21 08:10:13;;;;;;;;;;;;;;;13.59;84.35;98609.78;4862442;29;20296;-67
2023/10/21 08:13:16;;;;;;;;;;;;;;;13.58;82.32;98623.88;4862927;29;19972;-66
2023/10/21 08:16:20;;;;;;;;;;;;;;;13.58;81.52;98625.66;4850861;29;19923;-66
2023/10/21 08:19:24;;;;;;;;;;;;;;;13.54;83.99;98632.19;4862403;29;19923;-66
2023/10/21 08:22:28;;;;;;;;;;;;;;;13.53;82.27;98633.13;4862350;29;19922;-66
2023/10/21 08:25:31;;;;;;;;;;;;;;;13.65;84.19;98638.06;4862162;29;19922;-66
2023/10/21 08:28:34;;;;;;;;;;;;;;;13.65;81.03;98647.75;4867681;29;20305;-67
2023/10/21 08:31:38;;;;;;;;;;;;;;;13.64;80.18;98659.22;4880340;29;20436;-66
2023/10/21 08:34:41;;;;;;;;;;;;;;;13.66;81.24;98644.97;4880389;29;19923;-65
2023/10/21 08:37:44;;;;;;;;;;;;;;;13.63;79.45;98652.34;4880647;29;19923;-66
2023/10/21 08:40:48;;;;;;;;;;;;;;;13.71;81.28;98649.78;4880877;29;19923;-65
2023/10/21 08:43:51;;;;;;;;;;;;;;;13.78;79.04;98660.53;4880327;29;20336;-65
2023/10/21 08:46:55;;;;;;;;;;;;;;;13.81;79.20;98650.56;4878675;29;19926;-65
2023/10/21 08:49:58;;;;;;;;;;;;;;;13.84;77.61;98658.16;4878871;29;20011;-65
2023/10/21 08:53:04;;;;;;;;;;;;;;;13.88;76.48;98666.56;4879456;29;20033;-66
2023/10/21 08:56:07;;;;;;;;;;;;;;;13.99;76.78;98662.91;4875203;29;20287;-66
2023/10/21 08:59:12;;;;;;;;;;;;;;;14.03;77.59;98669.53;4843083;29;19946;-65
2023/10/21 09:02:17;;;;;;;;;;;;;;;14.04;77.26;98682.53;4842043;29;20692;-65
2023/10/21 09:05:20;;;;;;;;;;;;;;;14.08;75.38;98676.00;4842000;29;20055;-65
2023/10/21 09:08:31;;;;;;;;;;;;;;;14.09;74.86;98688.16;4831703;29;19923;-66
2023/10/21 09:11:34;;;;;;;;;;;;;;;14.12;74.12;98702.81;4845976;29;20482;-65
2023/10/21 09:14:54;;;;;;;;;;;;;;;14.14;74.80;98700.88;4880049;29;19963;-65
2023/10/21 09:18:08;;;;;;;;;;;;;;;14.24;74.90;98703.44;4880040;29;19979;-65
2023/10/21 09:21:11;;;;;;;;;;;;;;;14.27;75.70;98703.16;4879945;29;19942;-65
2023/10/21 09:24:22;;;;;;;;;;;;;;;14.31;74.40;98699.25;4880118;29;19923;-65
2023/10/21 09:27:25;;;;;;;;;;;;;;;14.42;74.77;98713.00;4879403;29;20523;-65
2023/10/21 09:30:29;;;;;;;;;;;;;;;14.35;76.00;98722.44;4878713;29;19930;-65
2023/10/21 09:33:52;;;;;;;;;;;;;;;14.49;73.94;98728.19;4880044;29;19922;-65
2023/10/21 09:36:56;;;;;;;;;;;;;;;14.57;75.53;98729.13;4868283;29;19922;-65
2023/10/21 09:39:59;;;;;;;;;;;;;;;14.63;71.92;98736.41;4879874;29;19922;-65
2023/10/21 09:43:03;;;;;;;;;;;;;;;14.74;71.23;98759.06;4879509;29;19923;-65
2023/10/21 09:46:10;;;;;;;;;;;;;;;14.74;70.73;98750.31;4879606;29;19998;-65
2023/10/21 09:49:14;;;;;;;;;;;;;;;14.77;69.77;98742.13;4879282;29;19967;-65
2023/10/21 09:52:21;;;;;;;;;;;;;;;14.75;70.00;98770.41;4879708;29;20398;-65
2023/10/21 09:55:25;;;;;;;;;;;;;;;14.76;70.07;98751.81;4879807;29;19959;-65
2023/10/21 09:58:31;;;;;;;;;;;;;;;14.76;69.78;98753.63;4879746;29;19927;-65
2023/10/21 10:01:39;;;;;;;;;;;;;;;14.77;68.55;98755.28;4865741;29;19923;-65
2023/10/21 10:04:42;;;;;;;;;;;;;;;14.84;69.07;98758.97;4879264;29;19926;-66
2023/10/21 10:07:46;;;;;;;;;;;;;;;15.00;68.06;98768.81;4878584;29;20415;-66
2023/10/21 10:10:52;;;;;;;;;;;;;;;15.14;67.61;98768.28;4878305;29;19930;-66
2023/10/21 10:13:56;;;;;;;;;;;;;;;15.24;67.84;98776.09;4874911;29;19945;-65
2023/10/21 10:16:59;;;;;;;;;;;;;;;15.21;66.81;98776.41;4875593;29;20349;-66
2023/10/21 10:20:18;;;;;;;;;;;;;;;15.05;67.37;98777.91;4876362;29;19937;-65
2023/10/21 10:23:24;;;;;;;;;;;;;;;15.12;68.10;98786.03;4875809;29;19924;-65
2023/10/21 10:26:43;;;;;;;;;;;;;;;14.95;66.62;98802.66;4877467;29;19925;-66
2023/10/21 10:29:54;;;;;;;;;;;;;;;14.68;67.20;98796.47;4873633;29;19926;-65
2023/10/21 10:33:01;;;;;;;;;;;;;;;14.71;66.69;98806.72;4875286;29;19922;-65
2023/10/21 10:36:12;;;;;;;;;;;;;;;14.56;67.31;98813.44;4878617;29;19927;-65
2023/10/21 10:39:35;;;;;;;;;;;;;;;14.46;68.16;98807.38;4878620;29;19927;-64
2023/10/21 10:42:38;;;;;;;;;;;;;;;14.45;67.38;98817.03;4878560;29;19972;-67
2023/10/21 10:45:41;;;;;;;;;;;;;;;14.43;68.20;98813.75;4878999;29;19922;-65
2023/10/21 10:48:46;;;;;;;;;;;;;;;14.38;68.33;98826.50;4877761;29;20394;-68
2023/10/21 10:51:50;;;;;;;;;;;;;;;14.42;67.24;98822.59;4876105;29;20043;-66
2023/10/21 10:54:53;;;;;;;;;;;;;;;14.37;68.03;98820.41;4877253;29;19987;-66
2023/10/21 10:57:56;;;;;;;;;;;;;;;14.47;67.58;98828.25;4878294;29;19926;-66
2023/10/21 11:01:00;;;;;;;;;;;;;;;14.45;68.12;98806.53;4878582;29;19927;-65
2023/10/21 11:04:03;;;;;;;;;;;;;;;14.56;68.00;98819.53;4878330;29;20327;-65
2023/10/21 11:07:09;;;;;;;;;;;;;;;14.61;68.21;98812.03;4877648;29;20349;-65
2023/10/21 11:10:17;;;;;;;;;;;;;;;14.75;68.44;98802.78;4874913;29;19926;-65
2023/10/21 11:13:20;;;;;;;;;;;;;;;14.93;67.15;98797.53;4876815;29;20360;-65
2023/10/21 11:16:23;;;;;;;;;;;;;;;15.19;66.58;98800.25;4872864;29;20006;-65
2023/10/21 11:19:26;;;;;;;;;;;;;;;15.53;69.89;98796.88;4872989;29;19976;-71
2023/10/21 11:22:29;;;;;;;;;;;;;;;15.53;64.29;98792.44;4874461;29;20280;-66
2023/10/21 11:25:33;;;;;;;;;;;;;;;15.60;65.11;98795.28;4875174;29;19926;-65
2023/10/21 11:28:37;;;;;;;;;;;;;;;15.63;63.07;98791.50;4875524;29;20253;-66
2023/10/21 11:31:42;;;;;;;;;;;;;;;15.63;63.58;98796.78;4877229;29;19926;-66
2023/10/21 11:34:46;;;;;;;;;;;;;;;15.70;61.79;98793.41;4877707;29;19967;-66
2023/10/21 11:37:55;;;;;;;;;;;;;;;15.52;61.44;98805.78;4877422;29;19926;-66
2023/10/21 11:41:00;;;;;;;;;;;;;;;15.49;61.71;98825.34;4874351;29;19971;-66
2023/10/21 11:44:08;;;;;;;;;;;;;;;15.35;61.78;98805.66;4875887;29;19973;-66
2023/10/21 11:47:13;;;;;;;;;;;;;;;15.38;62.91;98817.69;4872940;29;20288;-66
2023/10/21 11:50:20;;;;;;;;;;;;;;;15.32;62.48;98826.19;4873520;29;19942;-66
2023/10/21 11:53:24;;;;;;;;;;;;;;;15.20;62.98;98822.13;4874852;29;20014;-66
2023/10/21 12:16:16;;;;;;;;;;;;;;;15.51;62.47;98820.75;4877653;29;20292;-67
2023/10/21 12:33:04;;;;;;;;;;;;;;;15.98;61.73;98835.41;4879943;29;19922;-67
2023/10/21 12:39:48;;;;;;;;;;;;;;;16.07;61.50;98839.75;4866527;29;19922;-67
2023/10/21 12:43:22;;;;;;;;;;;;;;;15.99;61.00;98843.16;4869305;29;19927;-68
2023/10/21 12:46:17;;;;;;;;;;;;;;;16.15;60.98;98854.81;4880351;29;19991;-67
2023/10/21 12:49:21;;;;;;;;;;;;;;;15.87;61.62;98841.78;4875389;29;19930;-68
2023/10/21 12:52:24;;;;;;;;;;;;;;;15.69;60.38;98844.44;4874051;29;20376;-67
2023/10/21 12:55:28;;;;;;;;;;;;;;;15.64;61.62;98845.88;4868610;29;19922;-67
2023/10/21 12:58:31;;;;;;;;;;;;;;;15.67;61.33;98848.22;4878812;29;20059;-66
2023/10/21 13:01:38;;;;;;;;;;;;;;;15.61;62.69;98856.72;4868655;29;19923;-66
2023/10/21 13:04:42;;;;;;;;;;;;;;;15.63;61.77;98857.38;4880738;29;19950;-66
2023/10/21 13:07:45;;;;;;;;;;;;;;;15.62;61.06;98859.19;4880638;29;20236;-67
2023/10/21 13:10:48;;;;;;;;;;;;;;;15.60;60.71;98861.13;4880657;29;19927;-67
2023/10/21 13:13:52;;;;;;;;;;;;;;;15.50;61.34;98866.50;4880061;29;19964;-66
2023/10/21 13:16:55;;;;;;;;;;;;;;;15.60;61.23;98855.88;4880332;29;20388;-66
2023/10/21 13:19:58;;;;;;;;;;;;;;;15.63;61.41;98860.00;4879757;29;20012;-66
2023/10/21 13:23:01;;;;;;;;;;;;;;;15.89;63.33;98870.59;4879918;29;19962;-66
2023/10/21 13:26:06;;;;;;;;;;;;;;;15.98;62.61;98881.03;4879930;29;20099;-67
2023/10/21 13:29:09;;;;;;;;;;;;;;;16.04;61.27;98880.44;4879548;29;19931;-65
2023/10/21 13:32:12;;;;;;;;;;;;;;;16.12;61.44;98877.03;4868273;29;19977;-66
2023/10/21 13:35:16;;;;;;;;;;;;;;;16.12;64.89;98881.47;4879319;29;19971;-66
2023/10/21 13:38:21;;;;;;;;;;;;;;;16.00;66.90;98887.00;4879676;29;19922;-66
2023/10/21 13:41:25;;;;;;;;;;;;;;;15.76;63.33;98886.81;4879630;29;19939;-66
2023/10/21 13:44:29;;;;;;;;;;;;;;;15.66;59.52;98891.31;4879543;29;19971;-66
2023/10/21 13:47:32;;;;;;;;;;;;;;;15.74;66.91;98902.78;4879599;29;19922;-66
2023/10/21 13:50:38;;;;;;;;;;;;;;;15.75;64.08;98911.53;4879410;29;19926;-66
2023/10/21 13:53:41;;;;;;;;;;;;;;;15.67;59.77;98907.03;4879398;29;19985;-65
2023/10/21 13:56:44;;;;;;;;;;;;;;;15.75;57.48;98916.78;4879506;29;20421;-67
2023/10/21 14:00:36;;;;;;;;;;;;;;;15.71;57.99;98900.47;4878116;29;19946;-66
2023/10/21 14:03:40;;;;;;;;;;;;;;;16.01;57.62;98904.47;4879144;29;19935;-66
2023/10/21 14:06:43;;;;;;;;;;;;;;;15.89;58.12;98903.09;4878797;29;19971;-66
2023/10/21 14:09:47;;;;;;;;;;;;;;;15.71;57.46;98911.00;4879067;29;19976;-66
2023/10/21 14:12:50;;;;;;;;;;;;;;;15.84;57.15;98910.59;4867882;29;20419;-66
2023/10/21 14:15:54;;;;;;;;;;;;;;;16.11;55.88;98919.34;4879188;29;19923;-66
2023/10/21 14:18:57;;;;;;;;;;;;;;;16.17;56.33;98905.56;4878294;29;19972;-66
2023/10/21 14:22:00;;;;;;;;;;;;;;;16.07;59.49;98913.56;4879006;29;20012;-66
2023/10/21 14:25:04;;;;;;;;;;;;;;;16.02;57.92;98926.41;4878947;29;20384;-71
2023/10/21 14:28:10;;;;;;;;;;;;;;;15.92;59.90;98931.78;4862370;29;19959;-66
2023/10/21 14:31:14;;;;;;;;;;;;;;;15.87;61.86;98934.03;4878775;29;19927;-66
2023/10/21 14:34:17;;;;;;;;;;;;;;;15.90;58.60;98943.44;4878675;29;20304;-66
2023/10/21 14:37:20;;;;;;;;;;;;;;;15.89;56.36;98947.03;4879127;29;19922;-67
2023/10/21 14:40:24;;;;;;;;;;;;;;;16.01;57.78;98944.00;4877627;29;19984;-65
2023/10/21 14:43:27;;;;;;;;;;;;;;;16.14;56.33;98948.06;4877240;29;20379;-65
2023/10/21 14:46:30;;;;;;;;;;;;;;;16.30;56.36;98937.59;4877792;29;19922;-65
2023/10/21 14:49:33;;;;;;;;;;;;;;;16.10;55.67;98950.16;4878267;29;19946;-65
2023/10/21 14:52:37;;;;;;;;;;;;;;;16.09;55.23;98942.44;4876881;29;20431;-65
2023/10/21 14:55:41;;;;;;;;;;;;;;;15.98;58.99;98954.03;4877965;29;20387;-65
2023/10/21 14:58:44;;;;;;;;;;;;;;;15.81;55.90;98950.44;4878355;29;19971;-65
2023/10/21 15:01:47;;;;;;;;;;;;;;;15.88;64.58;98964.66;4878210;29;19923;-69
2023/10/21 15:04:50;;;;;;;;;;;;;;;15.81;59.64;98959.16;4878750;29;19923;-65
2023/10/21 15:07:54;;;;;;;;;;;;;;;15.81;65.60;98959.16;4878084;29;19922;-65
2023/10/21 15:10:58;;;;;;;;;;;;;;;15.69;67.86;98964.81;4866510;29;20308;-65
2023/10/21 15:14:01;;;;;;;;;;;;;;;15.58;71.41;98968.50;4878091;29;20483;-65
2023/10/21 15:17:04;;;;;;;;;;;;;;;15.38;72.79;98975.72;4878450;29;20012;-66
2023/10/21 15:20:08;;;;;;;;;;;;;;;14.93;74.71;98970.41;4878347;29;19939;-66
2023/10/21 15:23:11;;;;;;;;;;;;;;;14.88;75.01;98976.94;4878228;29;19982;-66
2023/10/21 15:26:15;;;;;;;;;;;;;;;14.66;76.00;98974.66;4878071;29;20075;-66
2023/10/21 15:29:19;;;;;;;;;;;;;;;14.66;77.12;98979.94;4877747;29;19931;-66
2023/10/21 15:32:23;;;;;;;;;;;;;;;14.57;77.38;98978.97;4878089;29;20344;-66
2023/10/21 15:35:26;;;;;;;;;;;;;;;14.48;78.12;98979.81;4878307;29;20015;-66
2023/10/21 15:38:29;;;;;;;;;;;;;;;13.79;81.82;98986.16;4877872;29;19963;-66
2023/10/21 15:41:32;;;;;;;;;;;;;;;13.88;78.62;98981.84;4877959;29;20029;-66
2023/10/21 15:44:35;;;;;;;;;;;;;;;13.78;80.52;98986.25;4877460;29;19922;-65
2023/10/21 15:47:38;;;;;;;;;;;;;;;13.84;79.77;98985.72;4877741;29;19927;-65
2023/10/21 15:50:41;;;;;;;;;;;;;;;13.77;79.34;98989.88;4877788;29;19974;-65
2023/10/21 15:53:45;;;;;;;;;;;;;;;13.92;79.29;99001.63;4877737;29;19923;-65
2023/10/21 15:56:48;;;;;;;;;;;;;;;13.81;79.62;99004.38;4878191;29;19975;-66
2023/10/21 15:59:54;;;;;;;;;;;;;;;13.58;81.42;99009.88;4877777;29;19923;-66
2023/10/21 16:02:57;;;;;;;;;;;;;;;13.73;81.29;99013.78;4877674;29;20426;-66
2023/10/21 16:06:00;;;;;;;;;;;;;;;13.73;81.65;99011.16;4879177;29;19924;-66
2023/10/21 16:09:05;;;;;;;;;;;;;;;13.72;83.70;99019.19;4881326;29;19927;-66
2023/10/21 16:12:08;;;;;;;;;;;;;;;13.58;83.74;99022.19;4881331;29;19978;-66
2023/10/21 16:15:12;;;;;;;;;;;;;;;13.54;84.40;99021.66;4881302;29;20019;-66
2023/10/21 16:18:15;;;;;;;;;;;;;;;13.42;85.56;99017.47;4881234;29;19966;-66
2023/10/21 16:21:18;;;;;;;;;;;;;;;13.41;86.57;99021.06;4881143;29;20006;-66
2023/10/21 16:24:21;;;;;;;;;;;;;;;13.35;86.91;99030.31;4880957;29;19926;-66
2023/10/21 16:27:24;;;;;;;;;;;;;;;13.34;86.63;99028.66;4880952;29;20424;-72
2023/10/21 16:30:28;;;;;;;;;;;;;;;13.31;87.34;99041.22;4882155;29;20003;-77